createdAt,value
2018-06-20T00:00:39.156Z,2.90
2018-06-20T00:03:06.533Z,3.40
2018-06-20T00:05:33.780Z,3.43
2018-06-20T00:08:01.056Z,3.50
2018-06-20T00:10:28.296Z,2.90
2018-06-20T00:12:55.576Z,3.30
2018-06-20T00:15:22.820Z,3.60
2018-06-20T00:17:50.069Z,3.03
2018-06-20T00:20:17.353Z,3.50
2018-06-20T00:22:44.621Z,3.60
2018-06-20T00:25:11.882Z,4.30
2018-06-20T00:27:39.132Z,4.17
2018-06-20T00:30:06.384Z,3.63
2018-06-20T00:32:33.721Z,3.70
2018-06-20T00:35:00.951Z,3.47
2018-06-20T00:37:28.289Z,3.07
2018-06-20T00:39:55.537Z,3.37
2018-06-20T00:42:22.800Z,3.37
2018-06-20T00:44:50.056Z,3.47
2018-06-20T00:47:17.344Z,3.53
2018-06-20T00:49:44.652Z,3.90
2018-06-20T00:52:11.918Z,3.63
2018-06-20T00:54:39.165Z,3.27
2018-06-20T00:57:06.413Z,3.30
2018-06-20T00:59:33.670Z,3.00
2018-06-20T01:02:00.944Z,3.90
2018-06-20T01:04:28.228Z,3.67
2018-06-20T01:06:55.534Z,3.93
2018-06-20T01:09:22.818Z,4.73
2018-06-20T01:11:50.214Z,3.90
2018-06-20T01:14:17.430Z,4.97
2018-06-20T01:16:44.709Z,4.03
2018-06-20T01:19:12.111Z,4.47
2018-06-20T01:21:39.413Z,3.80
2018-06-20T01:24:06.714Z,4.40
2018-06-20T01:26:33.994Z,4.00
2018-06-20T01:29:01.290Z,4.10
2018-06-20T01:31:28.631Z,3.53
2018-06-20T01:33:55.903Z,3.63
2018-06-20T01:36:23.190Z,4.07
2018-06-20T01:38:50.482Z,4.13
2018-06-20T01:41:17.758Z,4.00
2018-06-20T01:43:45.044Z,4.70
2018-06-20T01:46:12.371Z,4.23
2018-06-20T01:48:39.638Z,4.20
2018-06-20T01:51:06.923Z,4.33
2018-06-20T01:53:34.246Z,5.20
2018-06-20T01:56:01.534Z,4.17
2018-06-20T01:58:28.850Z,3.97
2018-06-20T02:00:56.155Z,4.13
2018-06-20T02:03:23.454Z,4.30
2018-06-20T02:05:50.750Z,4.50
2018-06-20T02:08:18.021Z,4.10
2018-06-20T02:10:45.329Z,4.50
2018-06-20T02:13:12.637Z,4.20
2018-06-20T02:15:39.910Z,4.07
2018-06-20T02:18:07.289Z,3.60
2018-06-20T02:20:34.582Z,4.60
2018-06-20T02:23:01.883Z,4.30
2018-06-20T02:25:29.203Z,4.90
2018-06-20T02:27:56.490Z,4.20
2018-06-20T02:30:23.767Z,3.87
2018-06-20T02:32:51.066Z,4.47
2018-06-20T02:35:18.340Z,3.60
2018-06-20T02:37:45.650Z,3.97
2018-06-20T02:40:13.007Z,3.90
2018-06-20T02:42:40.350Z,4.50
2018-06-20T02:45:07.652Z,4.33
2018-06-20T02:47:39.888Z,3.80
2018-06-20T02:50:07.613Z,4.10
2018-06-20T02:52:34.958Z,5.63
2018-06-20T02:55:02.343Z,5.30
2018-06-20T02:57:29.614Z,4.30
2018-06-20T02:59:56.907Z,4.27
2018-06-20T03:02:24.214Z,4.10
2018-06-20T03:04:52.525Z,4.20
2018-06-20T03:07:19.795Z,5.57
2018-06-20T03:09:47.091Z,5.30
2018-06-20T03:12:14.388Z,4.30
2018-06-20T03:14:41.686Z,5.20
2018-06-20T03:17:08.983Z,4.20
2018-06-20T03:19:36.307Z,3.90
2018-06-20T03:22:03.575Z,4.33
2018-06-20T03:24:30.846Z,5.10
2018-06-20T03:26:58.139Z,5.10
2018-06-20T03:29:25.438Z,4.53
2018-06-20T03:31:52.788Z,5.10
2018-06-20T03:34:20.070Z,5.37
2018-06-20T03:36:47.413Z,4.70
2018-06-20T03:39:14.678Z,4.67
2018-06-20T03:41:41.934Z,5.00
2018-06-20T03:44:09.276Z,5.30
2018-06-20T03:46:36.564Z,4.63
2018-06-20T03:49:04.151Z,3.80
2018-06-20T03:51:31.463Z,4.33
2018-06-20T03:53:58.898Z,4.17
2018-06-20T03:56:26.202Z,5.07
2018-06-20T03:58:53.922Z,5.23
2018-06-20T04:01:21.232Z,4.63
2018-06-20T04:03:48.543Z,4.57
2018-06-20T04:06:15.942Z,4.97
2018-06-20T04:08:43.256Z,4.10
2018-06-20T04:11:10.575Z,4.20
2018-06-20T04:13:37.912Z,4.77
2018-06-20T04:16:05.309Z,6.20
2018-06-20T04:18:42.627Z,5.20
2018-06-20T04:21:11.369Z,5.37
2018-06-20T04:23:38.677Z,4.60
2018-06-20T04:26:06.831Z,5.10
2018-06-20T04:28:34.162Z,4.30
2018-06-20T04:31:02.108Z,5.13
2018-06-20T04:33:29.427Z,5.03
2018-06-20T04:35:56.823Z,5.97
2018-06-20T04:38:24.159Z,5.73
2018-06-20T04:40:51.458Z,5.87
2018-06-20T04:43:18.734Z,4.90
2018-06-20T04:45:46.030Z,5.47
2018-06-20T04:48:13.318Z,5.53
2018-06-20T04:50:40.769Z,5.53
2018-06-20T04:53:08.310Z,6.80
2018-06-20T04:55:35.668Z,5.97
2018-06-20T04:58:02.952Z,5.60
2018-06-20T05:00:30.270Z,6.10
2018-06-20T05:02:57.603Z,6.50
2018-06-20T05:05:24.867Z,6.57
2018-06-20T05:07:52.127Z,6.07
2018-06-20T05:10:19.433Z,6.50
2018-06-20T05:12:46.806Z,6.30
2018-06-20T05:15:14.153Z,6.50
2018-06-20T05:17:41.469Z,5.70
2018-06-20T05:20:08.779Z,6.03
2018-06-20T05:22:36.113Z,6.10
2018-06-20T05:25:03.539Z,5.87
2018-06-20T05:27:30.929Z,6.10
2018-06-20T05:29:58.227Z,5.30
2018-06-20T05:32:25.536Z,7.00
2018-06-20T05:34:52.848Z,5.63
2018-06-20T05:37:20.210Z,6.00
2018-06-20T05:39:47.515Z,6.33
2018-06-20T05:42:14.770Z,5.93
2018-06-20T05:44:42.057Z,5.20
2018-06-20T05:47:09.302Z,7.03
2018-06-20T05:49:36.644Z,6.23
2018-06-20T05:52:03.946Z,6.00
2018-06-20T05:54:31.197Z,6.50
2018-06-20T05:56:58.485Z,6.53
2018-06-20T05:59:25.769Z,6.57
2018-06-20T06:01:53.030Z,6.20
2018-06-20T06:04:20.307Z,6.27
2018-06-20T06:06:47.597Z,7.37
2018-06-20T06:09:14.897Z,6.93
2018-06-20T06:11:42.150Z,6.07
2018-06-20T06:14:09.442Z,6.63
2018-06-20T06:16:36.718Z,7.47
2018-06-20T06:19:04.070Z,7.50
2018-06-20T06:21:31.349Z,7.70
2018-06-20T06:23:58.593Z,6.90
2018-06-20T06:26:25.873Z,7.80
2018-06-20T06:28:53.157Z,6.33
2018-06-20T06:31:20.517Z,7.00
2018-06-20T06:33:47.792Z,6.70
2018-06-20T06:36:15.092Z,7.10
2018-06-20T06:38:42.937Z,7.50
2018-06-20T06:41:10.209Z,6.93
2018-06-20T06:43:37.482Z,6.30
2018-06-20T06:46:04.810Z,6.10
2018-06-20T06:48:32.073Z,7.50
2018-06-20T06:50:59.338Z,6.40
2018-06-20T06:53:26.639Z,7.20
2018-06-20T06:55:53.897Z,6.67
2018-06-20T06:58:21.195Z,6.90
2018-06-20T07:00:48.453Z,7.00
2018-06-20T07:03:15.750Z,6.73
2018-06-20T07:05:43.043Z,6.83
2018-06-20T07:08:10.341Z,6.60
2018-06-20T07:10:37.594Z,6.97
2018-06-20T07:13:04.874Z,6.60
2018-06-20T07:15:32.173Z,6.83
2018-06-20T07:17:59.442Z,7.30
2018-06-20T07:20:26.754Z,5.30
2018-06-20T07:22:54.016Z,5.60
2018-06-20T07:25:21.318Z,6.80
2018-06-20T07:27:48.590Z,6.73
2018-06-20T07:30:15.905Z,6.50
2018-06-20T07:32:43.189Z,6.37
2018-06-20T07:35:10.470Z,5.77
2018-06-20T07:37:37.742Z,5.90
2018-06-20T07:40:05.388Z,5.63
2018-06-20T07:42:32.694Z,6.50
2018-06-20T07:45:00.083Z,7.00
2018-06-20T07:47:27.258Z,5.70
2018-06-20T07:49:54.525Z,6.90
2018-06-20T07:52:21.805Z,6.17
2018-06-20T07:54:49.065Z,5.53
2018-06-20T07:57:16.321Z,6.07
2018-06-20T07:59:49.341Z,6.53
2018-06-20T08:02:33.966Z,5.70
2018-06-20T08:05:06.981Z,4.53
2018-06-20T08:07:40.119Z,4.83
2018-06-20T08:10:14.843Z,5.10
2018-06-20T08:12:51.518Z,4.83
2018-06-20T08:15:26.078Z,5.53
2018-06-20T08:17:59.125Z,4.80
2018-06-20T08:20:26.559Z,5.43
2018-06-20T08:22:53.890Z,5.60
2018-06-20T08:25:21.158Z,5.63
2018-06-20T08:27:48.415Z,5.13
2018-06-20T08:30:15.798Z,5.77
2018-06-20T08:32:43.059Z,4.83
2018-06-20T08:35:10.362Z,4.90
2018-06-20T08:37:37.684Z,5.20
2018-06-20T08:40:04.975Z,5.00
2018-06-20T08:42:32.282Z,5.70
2018-06-20T08:44:59.517Z,5.30
2018-06-20T08:47:26.773Z,5.53
2018-06-20T08:49:54.715Z,5.47
2018-06-20T08:52:22.038Z,5.20
2018-06-20T08:54:49.365Z,5.00
2018-06-20T08:57:16.647Z,5.17
2018-06-20T08:59:43.907Z,5.50
2018-06-20T09:02:11.255Z,6.00
2018-06-20T09:04:44.318Z,5.33
2018-06-20T09:09:22.683Z,5.00
2018-06-20T09:11:55.646Z,5.10
2018-06-20T09:14:22.950Z,5.30
2018-06-20T09:16:55.853Z,4.77
2018-06-20T09:19:28.853Z,5.63
2018-06-20T09:21:56.212Z,5.37
2018-06-20T09:24:23.433Z,5.27
2018-06-20T09:26:50.719Z,5.40
2018-06-20T09:29:17.998Z,5.03
2018-06-20T09:31:45.309Z,5.63
2018-06-20T09:34:12.585Z,5.70
2018-06-20T09:36:39.858Z,4.90
2018-06-20T09:39:07.273Z,5.10
2018-06-20T09:41:34.779Z,5.07
2018-06-20T09:44:02.144Z,5.50
2018-06-20T09:46:29.534Z,5.50
2018-06-20T09:48:56.828Z,5.33
2018-06-20T09:51:24.093Z,4.73
2018-06-20T09:53:51.393Z,5.23
2018-06-20T09:56:18.650Z,5.10
2018-06-20T09:58:45.941Z,5.00
2018-06-20T10:01:18.795Z,5.30
2018-06-20T10:03:51.729Z,5.63
2018-06-20T10:06:24.801Z,5.50
2018-06-20T10:08:56.594Z,5.70
2018-06-20T10:11:29.638Z,5.70
2018-06-20T10:14:00.258Z,5.43
2018-06-20T10:16:28.678Z,5.47
2018-06-20T10:18:55.988Z,5.03
2018-06-20T10:21:23.324Z,5.27
2018-06-20T10:23:50.594Z,4.80
2018-06-20T10:26:17.885Z,5.33
2018-06-20T10:28:45.201Z,4.20
2018-06-20T10:31:12.449Z,4.60
2018-06-20T10:33:39.781Z,4.77
2018-06-20T10:36:07.098Z,4.77
2018-06-20T10:38:34.360Z,5.27
2018-06-20T10:41:01.663Z,4.73
2018-06-20T10:43:28.921Z,4.73
2018-06-20T10:46:02.122Z,4.60
2018-06-20T10:48:29.385Z,5.40
2018-06-20T10:50:56.676Z,4.70
2018-06-20T10:53:23.969Z,5.00
2018-06-20T10:55:51.225Z,4.67
2018-06-20T10:58:24.222Z,4.23
2018-06-20T11:00:57.149Z,4.70
2018-06-20T11:03:30.394Z,4.83
2018-06-20T11:06:03.333Z,5.10
2018-06-20T11:08:36.207Z,4.87
2018-06-20T11:11:09.077Z,4.50
2018-06-20T11:13:36.382Z,4.30
2018-06-20T11:16:03.786Z,4.47
2018-06-20T11:18:32.613Z,4.80
2018-06-20T11:21:00.033Z,5.20
2018-06-20T11:23:27.903Z,4.90
2018-06-20T11:25:55.374Z,4.90
2018-06-20T11:28:22.671Z,4.13
2018-06-20T11:30:49.970Z,5.00
2018-06-20T11:33:17.247Z,4.87
2018-06-20T11:35:44.522Z,4.33
2018-06-20T11:38:11.818Z,4.60
2018-06-20T11:40:39.128Z,4.20
2018-06-20T11:43:06.505Z,4.90
2018-06-20T11:45:39.416Z,4.50
2018-06-20T11:48:06.889Z,4.40
2018-06-20T11:50:34.174Z,4.80
2018-06-20T11:53:02.989Z,4.67
2018-06-20T11:55:37.318Z,4.30
2018-06-20T11:58:11.065Z,4.70
2018-06-20T12:00:44.193Z,4.50
2018-06-20T12:03:17.150Z,4.50
2018-06-20T12:05:49.990Z,4.53
2018-06-20T12:08:22.942Z,4.17
2018-06-20T12:10:55.933Z,4.23
2018-06-20T12:13:28.907Z,4.03
2018-06-20T12:16:01.756Z,4.27
2018-06-20T12:18:34.690Z,4.53
2018-06-20T12:21:07.667Z,4.57
2018-06-20T12:23:40.575Z,4.33
2018-06-20T12:26:13.461Z,5.13
2018-06-20T12:28:46.361Z,4.60
2018-06-20T12:31:19.215Z,5.60
2018-06-20T12:33:52.249Z,4.40
2018-06-20T12:36:25.201Z,4.93
2018-06-20T12:38:58.497Z,4.50
2018-06-20T12:41:31.365Z,4.50
2018-06-20T12:44:04.307Z,4.70
2018-06-20T12:46:42.570Z,4.60
2018-06-20T12:49:13.121Z,4.23
2018-06-20T12:51:40.426Z,4.13
2018-06-20T12:54:07.703Z,3.77
2018-06-20T12:56:34.977Z,4.10
2018-06-20T12:59:02.255Z,4.10
2018-06-20T13:01:29.538Z,4.43
2018-06-20T13:03:56.867Z,4.47
2018-06-20T13:06:24.082Z,4.10
2018-06-20T13:08:51.369Z,4.13
2018-06-20T13:11:18.672Z,4.10
2018-06-20T13:13:45.982Z,3.97
2018-06-20T13:16:13.262Z,4.03
2018-06-20T13:18:45.587Z,3.97
2018-06-20T13:21:12.841Z,4.50
2018-06-20T13:23:40.096Z,4.03
2018-06-20T13:26:07.383Z,4.50
2018-06-20T13:28:34.657Z,4.10
2018-06-20T13:31:07.687Z,3.60
2018-06-20T13:33:40.630Z,4.23
2018-06-20T13:36:13.553Z,4.27
2018-06-20T13:38:46.462Z,3.90
2018-06-20T13:41:19.397Z,4.00
2018-06-20T13:43:52.453Z,3.10
2018-06-20T13:46:25.287Z,3.83
2018-06-20T13:48:52.624Z,3.37
2018-06-20T13:51:19.886Z,3.50
2018-06-20T13:53:47.161Z,4.00
2018-06-20T13:56:14.465Z,3.73
2018-06-20T13:58:41.722Z,3.70
2018-06-20T14:01:09.006Z,3.93
2018-06-20T14:03:36.289Z,3.93
2018-06-20T14:06:03.613Z,3.43
2018-06-20T14:08:30.917Z,3.57
2018-06-20T14:10:58.170Z,4.10
2018-06-20T14:13:25.453Z,3.60
2018-06-20T14:15:52.721Z,3.40
2018-06-20T14:18:20.039Z,3.20
2018-06-20T14:20:53.077Z,3.03
2018-06-20T14:23:20.380Z,3.30
2018-06-20T14:25:47.666Z,3.87
2018-06-20T14:28:14.953Z,3.40
2018-06-20T14:30:47.945Z,3.70
2018-06-20T14:33:20.989Z,3.00
2018-06-20T14:35:54.081Z,3.40
2018-06-20T14:38:27.061Z,4.03
2018-06-20T14:41:00.029Z,4.10
2018-06-20T14:43:33.018Z,4.20
2018-06-20T14:46:06.059Z,4.10
2018-06-20T14:48:33.379Z,3.50
2018-06-20T14:51:00.667Z,4.23
2018-06-20T14:53:27.953Z,4.10
2018-06-20T14:55:55.258Z,3.50
2018-06-20T14:58:22.546Z,3.20
2018-06-20T15:00:49.838Z,3.47
2018-06-20T15:03:17.149Z,4.00
2018-06-20T15:05:44.461Z,3.70
2018-06-20T15:08:11.864Z,3.83
2018-06-20T15:10:39.387Z,3.93
2018-06-20T15:13:06.737Z,3.47
2018-06-20T15:15:34.014Z,3.67
2018-06-20T15:18:01.380Z,3.80
2018-06-20T15:20:28.641Z,4.10
2018-06-20T15:22:56.022Z,3.77
2018-06-20T15:25:29.059Z,4.17
2018-06-20T15:28:01.958Z,3.70
2018-06-20T15:30:34.897Z,4.00
2018-06-20T15:33:07.863Z,4.30
2018-06-20T15:35:40.754Z,4.63
2018-06-20T15:38:13.613Z,4.40
2018-06-20T15:40:40.918Z,4.00
2018-06-20T15:43:08.219Z,4.07
2018-06-20T15:45:35.507Z,4.30
2018-06-20T15:48:02.898Z,4.57
2018-06-20T15:50:30.217Z,4.70
2018-06-20T15:52:57.467Z,4.50
2018-06-20T15:55:24.722Z,4.63
2018-06-20T15:57:52.042Z,4.10
2018-06-20T16:00:19.339Z,4.33
2018-06-20T16:02:46.688Z,4.30
2018-06-20T16:05:13.994Z,3.77
2018-06-20T16:07:41.266Z,4.73
2018-06-20T16:10:11.239Z,4.93
2018-06-20T16:12:38.529Z,4.20
2018-06-20T16:15:05.845Z,4.90
2018-06-20T16:17:33.143Z,4.60
2018-06-20T16:20:06.279Z,4.90
2018-06-20T16:22:39.166Z,4.87
2018-06-20T16:25:12.233Z,34.63
2018-06-20T16:27:45.150Z,11.73
2018-06-20T16:30:45.938Z,8.47
2018-06-20T16:33:15.439Z,32.40
2018-06-20T16:35:42.768Z,25.27
2018-06-20T16:38:10.066Z,32.90
2018-06-20T16:40:37.397Z,18.30
2018-06-20T16:43:04.710Z,11.07
2018-06-20T16:45:32.045Z,9.10
2018-06-20T16:47:59.297Z,7.60
2018-06-20T16:50:26.571Z,6.23
2018-06-20T16:52:53.909Z,5.53
2018-06-20T16:55:21.308Z,4.67
2018-06-20T16:57:48.610Z,5.30
2018-06-20T17:00:16.022Z,4.83
2018-06-20T17:02:43.948Z,5.07
2018-06-20T17:05:11.510Z,4.63
2018-06-20T17:07:38.817Z,5.00
2018-06-20T17:10:06.141Z,4.90
2018-06-20T17:12:39.243Z,5.03
2018-06-20T17:15:12.357Z,4.47
2018-06-20T17:17:45.294Z,4.83
2018-06-20T17:20:18.234Z,5.20
2018-06-20T17:22:51.159Z,5.30
2018-06-20T17:25:23.233Z,4.97
2018-06-20T17:27:50.538Z,5.47
2018-06-20T17:30:17.851Z,4.23
2018-06-20T17:32:45.274Z,4.53
2018-06-20T17:35:12.630Z,4.57
2018-06-20T17:37:39.974Z,4.73
2018-06-20T17:40:07.312Z,4.80
2018-06-20T17:42:34.602Z,5.27
2018-06-20T17:45:02.007Z,4.90
2018-06-20T17:47:29.270Z,4.73
2018-06-20T17:49:56.606Z,4.93
2018-06-20T17:52:23.874Z,4.03
2018-06-20T17:54:51.206Z,4.80
2018-06-20T17:57:18.487Z,3.53
2018-06-20T17:59:45.769Z,5.07
2018-06-20T18:02:13.144Z,4.30
2018-06-20T18:04:46.050Z,4.73
2018-06-20T18:07:18.863Z,3.97
2018-06-20T18:09:51.834Z,4.40
2018-06-20T18:12:24.770Z,4.47
2018-06-20T18:15:58.058Z,4.83
2018-06-20T18:18:25.382Z,4.60
2018-06-20T18:20:52.764Z,4.50
2018-06-20T18:23:20.055Z,4.63
2018-06-20T18:25:47.358Z,4.60
2018-06-20T18:28:14.680Z,4.90
2018-06-20T18:30:41.992Z,4.17
2018-06-20T18:33:09.542Z,4.30
2018-06-20T18:35:36.869Z,4.50
2018-06-20T18:38:04.367Z,3.93
2018-06-20T18:40:31.635Z,4.03
2018-06-20T18:42:58.998Z,4.53
2018-06-20T18:45:26.330Z,4.57
2018-06-20T18:47:59.230Z,4.60
2018-06-20T18:50:26.541Z,4.50
2018-06-20T18:52:53.900Z,4.33
2018-06-20T18:55:21.254Z,4.40
2018-06-20T18:57:54.448Z,4.30
2018-06-20T19:01:29.149Z,4.77
2018-06-20T19:04:06.325Z,5.10
2018-06-20T19:06:39.706Z,4.73
2018-06-20T19:09:11.302Z,4.27
2018-06-20T19:11:38.620Z,4.63
2018-06-20T19:14:05.909Z,4.70
2018-06-20T19:16:33.328Z,5.57
2018-06-20T19:19:00.662Z,4.97
2018-06-20T19:21:27.981Z,5.00
2018-06-20T19:23:55.261Z,4.63
2018-06-20T19:26:22.579Z,4.80
2018-06-20T19:28:49.983Z,5.13
2018-06-20T19:31:17.326Z,4.60
2018-06-20T19:33:45.202Z,5.00
2018-06-20T19:36:12.509Z,5.30
2018-06-20T19:38:39.919Z,5.57
2018-06-20T19:41:07.487Z,4.63
2018-06-20T19:43:39.386Z,4.63
2018-06-20T19:46:06.882Z,4.77
2018-06-20T19:48:34.234Z,4.87
2018-06-20T19:51:01.503Z,4.37
2018-06-20T19:53:28.839Z,4.63
2018-06-20T19:55:56.098Z,4.60
2018-06-20T19:58:23.389Z,5.20
2018-06-20T20:00:50.690Z,5.60
2018-06-20T20:03:17.998Z,4.30
2018-06-20T20:05:45.328Z,5.00
2018-06-20T20:08:12.594Z,4.77
2018-06-20T20:10:39.936Z,4.70
2018-06-20T20:13:07.206Z,4.47
2018-06-20T20:15:34.514Z,4.70
2018-06-20T20:18:01.811Z,5.30
2018-06-20T20:20:29.164Z,5.20
2018-06-20T20:22:56.414Z,5.50
2018-06-20T20:25:23.762Z,5.50
2018-06-20T20:27:51.037Z,5.17
2018-06-20T20:30:18.430Z,5.50
2018-06-20T20:32:45.779Z,5.07
2018-06-20T20:35:13.058Z,5.03
2018-06-20T20:37:40.374Z,5.63
2018-06-20T20:40:07.651Z,5.20
2018-06-20T20:42:35.010Z,4.57
2018-06-20T20:45:02.311Z,4.40
2018-06-20T20:47:29.667Z,5.40
2018-06-20T20:49:56.984Z,4.87
2018-06-20T20:52:24.318Z,5.50
2018-06-20T20:54:51.636Z,4.90
2018-06-20T20:57:18.953Z,5.70
2018-06-20T20:59:46.323Z,5.40
2018-06-20T21:02:13.623Z,5.97
2018-06-20T21:04:40.932Z,5.47
2018-06-20T21:07:08.291Z,5.30
2018-06-20T21:09:35.682Z,5.57
2018-06-20T21:12:03.022Z,4.97
2018-06-20T21:14:30.342Z,5.43
2018-06-20T21:16:57.706Z,5.10
2018-06-20T21:19:24.969Z,5.77
2018-06-20T21:21:52.308Z,5.33
2018-06-20T21:24:19.656Z,4.77
2018-06-20T21:26:46.973Z,5.37
2018-06-20T21:29:14.318Z,5.20
2018-06-20T21:31:41.604Z,4.63
2018-06-20T21:34:08.946Z,5.67
2018-06-20T21:36:36.319Z,5.40
2018-06-20T21:39:06.679Z,5.03
2018-06-20T21:41:33.996Z,5.20
2018-06-20T21:44:01.405Z,5.97
2018-06-20T21:46:28.713Z,5.30
2018-06-20T21:48:56.105Z,4.87
2018-06-20T21:51:23.467Z,5.50
2018-06-20T21:53:50.934Z,5.40
2018-06-20T21:56:18.218Z,5.60
2018-06-20T21:58:45.506Z,4.67
2018-06-20T22:01:12.882Z,4.60
2018-06-20T22:03:40.248Z,5.47
2018-06-20T22:06:07.981Z,5.20
2018-06-20T22:08:35.273Z,4.80
2018-06-20T22:11:02.560Z,4.60
2018-06-20T22:13:29.879Z,5.23
2018-06-20T22:15:57.298Z,4.10
2018-06-20T22:18:24.619Z,5.10
2018-06-20T22:20:51.991Z,5.70
2018-06-20T22:23:19.273Z,5.67
2018-06-20T22:25:46.611Z,5.37
2018-06-20T22:28:13.910Z,5.13
2018-06-20T22:30:41.216Z,5.20
2018-06-20T22:33:08.522Z,5.67
2018-06-20T22:35:35.789Z,6.10
2018-06-20T22:38:03.125Z,5.20
2018-06-20T22:40:30.510Z,5.00
2018-06-20T22:42:57.856Z,4.77
2018-06-20T22:45:25.133Z,5.10
2018-06-20T22:47:52.427Z,5.57
2018-06-20T22:50:19.748Z,5.30
2018-06-20T22:52:47.090Z,5.70
2018-06-20T22:55:14.389Z,5.50
2018-06-20T22:57:41.677Z,5.40
2018-06-20T23:00:09.637Z,5.50
2018-06-20T23:02:37.170Z,4.93
2018-06-20T23:05:04.630Z,5.07
2018-06-20T23:07:31.939Z,5.40
2018-06-20T23:09:59.267Z,4.80
2018-06-20T23:12:26.558Z,4.70
2018-06-20T23:14:53.853Z,4.50
2018-06-20T23:17:21.166Z,5.00
2018-06-20T23:19:48.503Z,4.30
2018-06-20T23:22:15.794Z,5.17
2018-06-20T23:24:43.103Z,5.00
2018-06-20T23:27:10.451Z,5.80
2018-06-20T23:29:37.761Z,5.00
2018-06-20T23:32:05.305Z,5.23
2018-06-20T23:34:32.629Z,4.80
2018-06-20T23:36:59.950Z,5.27
2018-06-20T23:39:27.272Z,5.93
2018-06-20T23:41:54.552Z,6.40
2018-06-20T23:44:21.853Z,5.50
2018-06-20T23:46:49.168Z,6.23
2018-06-20T23:49:16.472Z,5.63
2018-06-20T23:51:43.770Z,5.70
2018-06-20T23:54:11.111Z,5.40
2018-06-20T23:56:38.425Z,4.93
2018-06-20T23:59:05.729Z,5.43
